Aviation Digital Data Service (ADDS)

Output produced by METARs form (2251 UTC 19 April 2015)
found at http://www.aviationweather.gov/adds/metars/
 
KALB 191722Z 1918/2018 14007KT P6SM SCT250 
     FM200300 15007KT P6SM SCT150 BKN200 
     FM200900 15010KT P6SM VCSH BKN080 OVC100 
     FM201200 14011KT 6SM SHRA OVC080 
     FM201500 14013G23KT 3SM RA OVC020